createdAt,value
2019-01-06T00:00:04.803Z,18.07
2019-01-06T00:02:31.954Z,16.05
2019-01-06T00:04:59.029Z,14.28
2019-01-06T00:07:25.695Z,12.47
2019-01-06T00:09:52.916Z,12.80
2019-01-06T00:12:20.743Z,16.35
2019-01-06T00:14:47.880Z,16.35
2019-01-06T00:17:15.099Z,13.22
2019-01-06T00:19:41.830Z,14.00
2019-01-06T00:22:08.978Z,15.43
2019-01-06T00:24:36.099Z,16.70
2019-01-06T00:27:02.808Z,14.75
2019-01-06T00:29:29.894Z,12.00
2019-01-06T00:31:56.677Z,12.80
2019-01-06T00:34:23.807Z,11.40
2019-01-06T00:36:50.925Z,12.78
2019-01-06T00:39:17.733Z,10.43
2019-01-06T00:41:44.820Z,12.43
2019-01-06T00:44:11.871Z,11.65
2019-01-06T00:46:39.028Z,10.30
2019-01-06T00:49:06.111Z,8.50
2019-01-06T00:51:32.810Z,11.53
2019-01-06T00:53:59.963Z,12.95
2019-01-06T00:56:27.030Z,10.78
2019-01-06T00:58:53.696Z,13.03
2019-01-06T01:01:20.902Z,11.88
2019-01-06T01:03:47.888Z,8.40
2019-01-06T01:06:14.487Z,9.55
2019-01-06T01:08:41.185Z,12.85
2019-01-06T01:11:07.862Z,11.20
2019-01-06T01:13:34.856Z,9.58
2019-01-06T01:16:01.541Z,10.63
2019-01-06T01:18:28.206Z,8.20
2019-01-06T01:20:55.236Z,10.50
2019-01-06T01:23:21.945Z,8.43
2019-01-06T01:25:48.573Z,11.28
2019-01-06T01:28:15.662Z,12.82
2019-01-06T01:30:42.755Z,9.10
2019-01-06T01:33:09.334Z,9.85
2019-01-06T01:35:36.396Z,11.10
2019-01-06T01:38:03.485Z,7.45
2019-01-06T01:40:30.487Z,10.18
2019-01-06T01:42:57.499Z,6.83
2019-01-06T01:45:24.527Z,9.30
2019-01-06T01:47:51.108Z,8.78
2019-01-06T01:50:17.743Z,8.38
2019-01-06T01:52:44.462Z,10.20
2019-01-06T01:55:11.061Z,7.47
2019-01-06T01:57:38.082Z,11.65
2019-01-06T02:00:05.241Z,10.90
2019-01-06T02:02:32.278Z,11.65
2019-01-06T02:04:59.271Z,8.18
2019-01-06T02:07:25.996Z,13.50
2019-01-06T02:09:52.646Z,10.30
2019-01-06T02:12:19.696Z,7.20
2019-01-06T02:14:46.423Z,9.90
2019-01-06T02:17:13.370Z,9.18
2019-01-06T02:19:40.329Z,7.97
2019-01-06T02:22:07.083Z,8.90
2019-01-06T02:24:34.201Z,11.48
2019-01-06T02:27:00.844Z,7.60
2019-01-06T02:29:27.902Z,9.68
2019-01-06T02:31:55.039Z,10.80
2019-01-06T02:34:22.108Z,7.53
2019-01-06T02:36:48.810Z,9.68
2019-01-06T02:39:15.845Z,10.13
2019-01-06T02:41:42.480Z,8.80
2019-01-06T02:44:09.635Z,15.45
2019-01-06T02:46:36.630Z,9.50
2019-01-06T02:49:03.735Z,10.88
2019-01-06T02:51:30.447Z,10.32
2019-01-06T02:53:57.474Z,9.33
2019-01-06T02:56:24.097Z,12.95
2019-01-06T02:58:51.208Z,11.63
2019-01-06T03:01:17.893Z,10.72
2019-01-06T03:03:44.999Z,10.65
2019-01-06T03:06:12.147Z,10.93
2019-01-06T03:08:38.865Z,10.55
2019-01-06T03:11:05.939Z,11.60
2019-01-06T03:13:33.080Z,10.48
2019-01-06T03:16:00.127Z,14.28
2019-01-06T03:18:26.848Z,11.12
2019-01-06T03:20:53.548Z,10.93
2019-01-06T03:23:20.176Z,9.88
2019-01-06T03:25:47.164Z,9.80
2019-01-06T03:28:14.255Z,11.57
2019-01-06T03:30:40.972Z,10.90
2019-01-06T03:33:07.620Z,11.68
2019-01-06T03:35:34.281Z,9.43
2019-01-06T03:38:01.240Z,9.68
2019-01-06T03:40:28.254Z,10.82
2019-01-06T03:42:55.405Z,10.20
2019-01-06T03:45:22.381Z,8.93
2019-01-06T03:47:48.989Z,9.88
2019-01-06T03:50:15.747Z,10.30
2019-01-06T03:52:42.395Z,9.83
2019-01-06T03:55:09.418Z,10.70
2019-01-06T03:57:36.570Z,10.45
2019-01-06T04:00:03.579Z,8.95
2019-01-06T04:02:30.269Z,10.93
2019-01-06T04:04:57.402Z,10.15
2019-01-06T04:07:23.992Z,9.55
2019-01-06T04:09:51.034Z,9.03
2019-01-06T04:12:17.786Z,12.50
2019-01-06T04:14:44.864Z,10.65
2019-01-06T04:17:11.872Z,9.30
2019-01-06T04:19:38.913Z,9.03
2019-01-06T04:22:06.044Z,10.05
2019-01-06T04:24:32.759Z,11.90
2019-01-06T04:26:59.914Z,11.78
2019-01-06T04:29:26.557Z,10.23
2019-01-06T04:31:54.391Z,8.00
2019-01-06T04:34:21.074Z,6.72
2019-01-06T04:36:48.049Z,8.40
2019-01-06T04:39:14.677Z,8.10
2019-01-06T04:41:41.319Z,7.08
2019-01-06T04:44:08.018Z,10.32
2019-01-06T04:46:34.608Z,6.53
2019-01-06T04:49:01.647Z,7.12
2019-01-06T04:51:28.284Z,7.80
2019-01-06T04:53:54.978Z,10.23
2019-01-06T04:56:21.808Z,12.18
2019-01-06T04:58:48.520Z,10.78
2019-01-06T05:01:15.635Z,11.38
2019-01-06T05:03:42.461Z,10.23
2019-01-06T05:06:09.443Z,8.40
2019-01-06T05:08:37.519Z,6.67
2019-01-06T05:11:04.581Z,8.28
2019-01-06T05:13:31.158Z,6.33
2019-01-06T05:15:58.156Z,7.55
2019-01-06T05:18:24.885Z,7.67
2019-01-06T05:20:51.573Z,6.70
2019-01-06T05:23:18.206Z,6.45
2019-01-06T05:25:44.962Z,8.05
2019-01-06T05:28:11.585Z,6.58
2019-01-06T05:30:38.236Z,5.05
2019-01-06T05:33:05.557Z,6.35
2019-01-06T05:35:32.140Z,7.35
2019-01-06T05:37:59.124Z,6.97
2019-01-06T05:40:26.176Z,6.92
2019-01-06T05:42:53.102Z,9.65
2019-01-06T05:45:19.929Z,9.03
2019-01-06T05:47:47.007Z,8.15
2019-01-06T05:50:14.008Z,11.45
2019-01-06T05:52:41.006Z,9.35
2019-01-06T05:55:08.106Z,10.05
2019-01-06T05:57:34.700Z,7.85
2019-01-06T06:00:01.743Z,9.25
2019-01-06T06:02:28.787Z,8.38
2019-01-06T06:04:55.849Z,7.80
2019-01-06T06:07:22.783Z,6.58
2019-01-06T06:09:49.828Z,8.25
2019-01-06T06:12:16.875Z,10.50
2019-01-06T06:14:43.974Z,7.30
2019-01-06T06:17:10.757Z,8.78
2019-01-06T06:19:37.446Z,9.10
2019-01-06T06:22:04.489Z,7.50
2019-01-06T06:24:31.501Z,7.17
2019-01-06T06:26:58.562Z,7.25
2019-01-06T06:29:25.279Z,7.60
2019-01-06T06:31:52.337Z,8.73
2019-01-06T06:34:18.913Z,4.50
2019-01-06T06:36:45.925Z,6.30
2019-01-06T06:39:12.971Z,5.53
2019-01-06T06:41:39.628Z,4.75
2019-01-06T06:44:06.300Z,5.50
2019-01-06T06:46:33.447Z,4.60
2019-01-06T06:49:00.044Z,5.03
2019-01-06T06:51:27.083Z,3.12
2019-01-06T06:53:53.812Z,3.65
2019-01-06T06:56:20.822Z,2.55
2019-01-06T06:58:47.469Z,2.95
2019-01-06T07:01:14.165Z,4.90
2019-01-06T07:03:41.216Z,3.80
2019-01-06T07:06:07.902Z,4.35
2019-01-06T07:08:34.756Z,4.10
2019-01-06T07:11:01.473Z,4.75
2019-01-06T07:13:28.480Z,3.02
2019-01-06T07:15:55.172Z,3.60
2019-01-06T07:18:22.147Z,4.83
2019-01-06T07:20:48.785Z,3.58
2019-01-06T07:23:15.837Z,4.78
2019-01-06T07:25:42.783Z,5.47
2019-01-06T07:28:09.774Z,4.28
2019-01-06T07:30:36.472Z,7.00
2019-01-06T07:33:03.076Z,5.15
2019-01-06T07:35:30.119Z,7.22
2019-01-06T07:37:57.768Z,9.20
2019-01-06T07:40:24.854Z,5.15
2019-01-06T07:42:51.968Z,6.33
2019-01-06T07:45:18.760Z,3.22
2019-01-06T07:47:45.408Z,5.22
2019-01-06T07:50:12.503Z,4.75
2019-01-06T07:52:39.189Z,6.60
2019-01-06T07:55:06.263Z,4.28
2019-01-06T07:57:32.945Z,4.85
2019-01-06T08:00:02.453Z,5.60
2019-01-06T08:02:29.028Z,4.40
2019-01-06T08:04:56.196Z,7.15
2019-01-06T08:07:22.856Z,7.30
2019-01-06T08:09:49.836Z,7.55
2019-01-06T08:12:16.509Z,6.20
2019-01-06T08:14:43.544Z,6.67
2019-01-06T08:17:10.162Z,7.10
2019-01-06T08:19:37.286Z,8.68
2019-01-06T08:22:04.059Z,7.35
2019-01-06T08:24:31.816Z,9.53
2019-01-06T08:26:58.529Z,8.88
2019-01-06T08:29:25.697Z,8.43
2019-01-06T08:31:52.722Z,7.97
2019-01-06T08:34:19.433Z,6.12
2019-01-06T08:36:46.610Z,8.88
2019-01-06T08:39:13.344Z,7.45
2019-01-06T08:41:39.923Z,8.15
2019-01-06T08:44:06.764Z,6.12
2019-01-06T08:46:33.783Z,6.25
2019-01-06T08:49:00.830Z,7.83
2019-01-06T08:51:27.586Z,6.97
2019-01-06T08:53:54.225Z,7.12
2019-01-06T08:56:20.949Z,6.50
2019-01-06T08:58:48.093Z,7.53
2019-01-06T09:01:15.273Z,7.90
2019-01-06T09:03:42.294Z,7.62
2019-01-06T09:06:09.444Z,7.67
2019-01-06T09:08:36.492Z,10.98
2019-01-06T09:11:03.668Z,9.05
2019-01-06T09:13:30.407Z,9.08
2019-01-06T09:15:57.090Z,8.43
2019-01-06T09:18:23.740Z,8.10
2019-01-06T09:20:50.556Z,10.13
2019-01-06T09:23:17.574Z,9.53
2019-01-06T09:25:44.582Z,11.10
2019-01-06T09:28:11.332Z,10.65
2019-01-06T09:30:38.021Z,12.60
2019-01-06T09:33:04.734Z,9.48
2019-01-06T09:35:31.504Z,11.65
2019-01-06T09:37:58.219Z,9.58
2019-01-06T09:40:27.103Z,10.32
2019-01-06T09:42:54.327Z,12.90
2019-01-06T09:45:21.064Z,10.88
2019-01-06T09:47:47.799Z,11.18
2019-01-06T09:50:14.529Z,9.73
2019-01-06T09:52:41.216Z,7.53
2019-01-06T09:55:09.772Z,8.95
2019-01-06T09:57:36.485Z,11.57
2019-01-06T10:00:03.151Z,9.58
2019-01-06T10:02:29.886Z,9.18
2019-01-06T10:04:56.618Z,9.80
2019-01-06T10:07:23.702Z,12.58
2019-01-06T10:09:51.842Z,10.08
2019-01-06T10:12:18.594Z,10.25
2019-01-06T10:14:45.683Z,16.82
2019-01-06T10:17:12.333Z,10.43
2019-01-06T10:19:39.086Z,12.30
2019-01-06T10:22:05.777Z,14.70
2019-01-06T10:24:32.516Z,13.98
2019-01-06T10:26:59.290Z,14.15
2019-01-06T10:29:26.010Z,19.55
2019-01-06T10:31:53.081Z,14.18
2019-01-06T10:34:20.233Z,15.85
2019-01-06T10:36:46.895Z,13.30
2019-01-06T10:39:13.872Z,15.35
2019-01-06T10:41:41.064Z,12.37
2019-01-06T10:44:07.769Z,13.95
2019-01-06T10:46:34.828Z,16.32
2019-01-06T10:49:01.546Z,14.38
2019-01-06T10:51:28.610Z,14.68
2019-01-06T10:53:55.332Z,13.98
2019-01-06T10:56:22.039Z,14.15
2019-01-06T10:58:49.149Z,13.75
2019-01-06T11:01:16.191Z,17.45
2019-01-06T11:03:43.342Z,16.15
2019-01-06T11:06:10.385Z,13.08
2019-01-06T11:08:37.446Z,12.13
2019-01-06T11:11:04.596Z,14.10
2019-01-06T11:13:31.634Z,15.78
2019-01-06T11:15:58.351Z,18.90
2019-01-06T11:18:25.508Z,10.85
2019-01-06T11:20:52.574Z,14.40
2019-01-06T11:23:19.221Z,12.37
2019-01-06T11:25:46.352Z,14.25
2019-01-06T11:28:13.602Z,13.48
2019-01-06T11:30:40.665Z,16.87
2019-01-06T11:33:08.014Z,15.53
2019-01-06T11:35:35.066Z,10.60
2019-01-06T11:38:02.115Z,10.88
2019-01-06T11:40:29.267Z,10.48
2019-01-06T11:42:56.291Z,10.88
2019-01-06T11:45:22.983Z,9.73
2019-01-06T11:47:49.820Z,10.30
2019-01-06T11:50:16.464Z,10.48
2019-01-06T11:52:43.128Z,11.43
2019-01-06T11:55:09.870Z,8.33
2019-01-06T11:57:36.963Z,11.90
2019-01-06T12:00:03.692Z,12.82
2019-01-06T12:02:38.773Z,11.43
2019-01-06T12:04:59.203Z,12.75
2019-01-06T12:07:25.946Z,13.50
2019-01-06T12:09:53.102Z,11.43
2019-01-06T12:12:19.796Z,13.15
2019-01-06T12:14:46.966Z,11.08
2019-01-06T12:17:14.240Z,12.90
2019-01-06T12:19:41.348Z,12.80
2019-01-06T12:22:08.142Z,12.95
2019-01-06T12:24:35.209Z,17.40
2019-01-06T12:27:01.956Z,16.97
2019-01-06T12:29:28.624Z,23.73
2019-01-06T12:31:55.371Z,29.15
2019-01-06T12:34:22.525Z,19.95
2019-01-06T12:36:49.642Z,22.80
2019-01-06T12:39:16.460Z,18.98
2019-01-06T12:41:43.211Z,15.10
2019-01-06T12:44:10.276Z,15.78
2019-01-06T12:46:37.630Z,17.27
2019-01-06T12:49:04.380Z,16.60
2019-01-06T12:51:31.430Z,18.62
2019-01-06T12:53:58.261Z,28.40
2019-01-06T12:56:24.935Z,25.55
2019-01-06T12:58:52.170Z,19.90
2019-01-06T13:01:19.011Z,20.68
2019-01-06T13:03:46.135Z,17.02
2019-01-06T13:06:12.889Z,18.70
2019-01-06T13:08:39.691Z,20.77
2019-01-06T13:11:06.827Z,18.20
2019-01-06T13:13:36.991Z,15.50
2019-01-06T13:16:03.058Z,14.68
2019-01-06T13:18:30.067Z,15.05
2019-01-06T13:20:57.083Z,16.77
2019-01-06T13:23:23.903Z,15.95
2019-01-06T13:25:51.016Z,20.65
2019-01-06T13:28:18.102Z,18.07
2019-01-06T13:30:45.266Z,22.27
2019-01-06T13:33:12.416Z,20.50
2019-01-06T13:35:39.975Z,20.45
2019-01-06T13:38:07.967Z,18.07
2019-01-06T13:40:35.117Z,21.00
2019-01-06T13:43:02.047Z,22.58
2019-01-06T13:45:28.933Z,19.07
2019-01-06T13:47:57.978Z,19.42
2019-01-06T13:50:24.764Z,24.37
2019-01-06T13:52:52.485Z,18.35
2019-01-06T13:55:20.558Z,16.77
2019-01-06T13:57:47.883Z,18.55
2019-01-06T14:00:14.817Z,18.02
2019-01-06T14:02:42.211Z,23.05
2019-01-06T14:05:09.463Z,17.70
2019-01-06T14:07:36.905Z,19.92
2019-01-06T14:10:03.547Z,18.25
2019-01-06T14:12:30.607Z,22.17
2019-01-06T14:14:57.841Z,20.12
2019-01-06T14:17:24.595Z,20.23
2019-01-06T14:19:51.709Z,26.77
2019-01-06T14:22:18.485Z,22.87
2019-01-06T14:24:45.218Z,20.00
2019-01-06T14:27:11.935Z,19.15
2019-01-06T14:29:39.213Z,18.17
2019-01-06T14:32:06.367Z,21.33
2019-01-06T14:34:33.504Z,24.05
2019-01-06T14:37:00.656Z,22.15
2019-01-06T14:39:27.805Z,18.07
2019-01-06T14:41:54.958Z,19.95
2019-01-06T14:44:22.216Z,30.97
2019-01-06T14:46:49.353Z,25.48
2019-01-06T14:49:16.095Z,17.90
2019-01-06T14:51:43.361Z,23.12
2019-01-06T14:54:10.450Z,22.93
2019-01-06T14:56:37.104Z,17.50
2019-01-06T14:59:03.895Z,20.10
2019-01-06T15:01:30.980Z,14.38
2019-01-06T15:03:58.010Z,14.73
2019-01-06T15:06:25.165Z,12.15
2019-01-06T15:08:51.848Z,12.43
2019-01-06T15:11:18.846Z,11.43
2019-01-06T15:13:46.016Z,12.80
2019-01-06T15:16:12.707Z,10.45
2019-01-06T15:18:39.801Z,10.75
2019-01-06T15:21:07.098Z,13.45
2019-01-06T15:23:33.832Z,10.90
2019-01-06T15:26:00.990Z,12.25
2019-01-06T15:28:28.154Z,11.97
2019-01-06T15:30:54.882Z,9.90
2019-01-06T15:33:21.623Z,11.00
2019-01-06T15:35:48.716Z,9.78
2019-01-06T15:38:15.414Z,11.33
2019-01-06T15:40:42.568Z,10.45
2019-01-06T15:43:09.712Z,11.80
2019-01-06T15:45:37.594Z,9.83
2019-01-06T15:48:04.726Z,10.93
2019-01-06T15:50:32.101Z,17.05
2019-01-06T15:52:58.814Z,11.50
2019-01-06T15:55:25.978Z,12.85
2019-01-06T15:57:53.128Z,14.40
2019-01-06T16:00:20.378Z,15.68
2019-01-06T16:02:47.534Z,12.45
2019-01-06T16:05:21.220Z,15.25
2019-01-06T16:07:48.369Z,14.23
2019-01-06T16:10:15.243Z,15.48
2019-01-06T16:12:44.795Z,15.38
2019-01-06T16:15:11.576Z,15.60
2019-01-06T16:17:38.809Z,21.48
2019-01-06T16:20:05.950Z,18.70
2019-01-06T16:22:33.104Z,17.23
2019-01-06T16:25:00.268Z,14.38
2019-01-06T16:27:27.093Z,15.68
2019-01-06T16:29:55.762Z,21.52
2019-01-06T16:32:22.530Z,15.53
2019-01-06T16:34:49.714Z,16.57
2019-01-06T16:37:16.931Z,17.35
2019-01-06T16:39:43.686Z,19.55
2019-01-06T16:42:11.029Z,13.25
2019-01-06T16:44:38.069Z,17.17
2019-01-06T16:47:05.354Z,16.00
2019-01-06T16:49:32.585Z,22.13
2019-01-06T16:52:04.136Z,17.62
2019-01-06T16:54:31.068Z,20.35
2019-01-06T16:56:58.241Z,18.70
2019-01-06T16:59:25.376Z,19.55
2019-01-06T17:01:52.516Z,19.20
2019-01-06T17:04:20.805Z,22.90
2019-01-06T17:06:47.956Z,20.25
2019-01-06T17:09:14.692Z,13.28
2019-01-06T17:11:41.536Z,9.78
2019-01-06T17:14:08.292Z,10.08
2019-01-06T17:16:35.417Z,9.08
2019-01-06T17:19:02.579Z,10.13
2019-01-06T17:21:29.741Z,8.48
2019-01-06T17:23:56.883Z,8.63
2019-01-06T17:26:24.017Z,11.83
2019-01-06T17:28:51.182Z,9.58
2019-01-06T17:31:17.918Z,9.13
2019-01-06T17:33:45.069Z,9.80
2019-01-06T17:36:12.230Z,13.15
2019-01-06T17:38:39.391Z,15.75
2019-01-06T17:41:06.099Z,15.83
2019-01-06T17:43:33.264Z,14.90
2019-01-06T17:46:00.012Z,16.23
2019-01-06T17:48:26.838Z,15.45
2019-01-06T17:50:54.200Z,15.58
2019-01-06T17:53:21.365Z,24.00
2019-01-06T17:55:48.531Z,19.75
2019-01-06T17:58:15.357Z,20.30
2019-01-06T18:00:42.687Z,16.93
2019-01-06T18:03:09.864Z,19.25
2019-01-06T18:05:36.594Z,16.73
2019-01-06T18:08:03.434Z,13.88
2019-01-06T18:10:30.286Z,14.53
2019-01-06T18:12:57.480Z,15.35
2019-01-06T18:15:24.565Z,11.65
2019-01-06T18:17:51.746Z,14.40
2019-01-06T18:20:19.247Z,12.88
2019-01-06T18:22:46.334Z,12.98
2019-01-06T18:25:25.726Z,10.32
2019-01-06T18:27:52.602Z,10.13
2019-01-06T18:30:19.698Z,12.63
2019-01-06T18:32:47.006Z,11.25
2019-01-06T18:35:13.751Z,12.10
2019-01-06T18:37:40.867Z,11.55
2019-01-06T18:40:07.637Z,10.50
2019-01-06T18:42:34.302Z,11.20
2019-01-06T18:45:08.656Z,10.20
2019-01-06T18:47:29.920Z,12.10
2019-01-06T18:49:57.042Z,12.53
2019-01-06T18:52:23.757Z,11.43
2019-01-06T18:54:50.896Z,10.28
2019-01-06T18:57:17.969Z,12.07
2019-01-06T18:59:45.084Z,11.80
2019-01-06T19:02:12.288Z,10.05
2019-01-06T19:04:39.006Z,12.55
2019-01-06T19:07:05.681Z,11.43
2019-01-06T19:09:32.473Z,12.33
2019-01-06T19:11:59.564Z,11.90
2019-01-06T19:14:26.276Z,15.80
2019-01-06T19:16:53.053Z,15.40
2019-01-06T19:19:19.729Z,15.78
2019-01-06T19:21:46.445Z,16.02
2019-01-06T19:24:13.193Z,13.18
2019-01-06T19:26:39.883Z,12.60
2019-01-06T19:29:07.790Z,16.32
2019-01-06T19:31:34.869Z,15.50
2019-01-06T19:34:01.594Z,14.28
2019-01-06T19:36:28.685Z,17.82
2019-01-06T19:38:55.488Z,17.17
2019-01-06T19:41:22.143Z,14.90
2019-01-06T19:43:49.271Z,13.68
2019-01-06T19:46:16.439Z,16.67
2019-01-06T19:48:43.165Z,17.90
2019-01-06T19:51:10.236Z,18.40
2019-01-06T19:53:36.931Z,16.90
2019-01-06T19:56:03.770Z,17.20
2019-01-06T19:58:32.431Z,18.27
2019-01-06T20:00:58.768Z,15.60
2019-01-06T20:03:25.482Z,12.45
2019-01-06T20:05:52.177Z,13.18
2019-01-06T20:08:18.901Z,16.17
2019-01-06T20:10:46.049Z,18.62
2019-01-06T20:13:13.184Z,18.23
2019-01-06T20:15:40.304Z,15.55
2019-01-06T20:18:07.076Z,16.82
2019-01-06T20:20:33.787Z,22.32
2019-01-06T20:23:00.467Z,19.07
2019-01-06T20:25:27.245Z,19.82
2019-01-06T20:27:54.361Z,17.95
2019-01-06T20:30:21.046Z,18.62
2019-01-06T20:32:47.731Z,17.37
2019-01-06T20:35:14.866Z,15.75
2019-01-06T20:37:42.072Z,18.42
2019-01-06T20:40:08.755Z,17.85
2019-01-06T20:42:35.484Z,18.23
2019-01-06T20:45:02.241Z,22.02
2019-01-06T20:47:28.950Z,20.45
2019-01-06T20:49:55.574Z,21.97
2019-01-06T20:52:22.330Z,22.30
2019-01-06T20:54:49.047Z,22.07
2019-01-06T20:57:15.731Z,19.50
2019-01-06T20:59:42.889Z,19.70
2019-01-06T21:02:09.621Z,25.45
2019-01-06T21:04:36.324Z,23.95
2019-01-06T21:07:03.070Z,20.17
2019-01-06T21:09:29.725Z,20.85
2019-01-06T21:12:03.827Z,20.12
2019-01-06T21:14:30.543Z,20.25
2019-01-06T21:16:57.650Z,23.87
2019-01-06T21:19:24.370Z,26.30
2019-01-06T21:21:51.115Z,24.77
2019-01-06T21:24:17.840Z,21.25
2019-01-06T21:26:44.922Z,27.20
2019-01-06T21:29:12.095Z,34.30
2019-01-06T21:31:39.318Z,36.17
2019-01-06T21:34:06.089Z,35.85
2019-01-06T21:36:32.991Z,25.92
2019-01-06T21:38:59.736Z,24.50
2019-01-06T21:41:26.794Z,25.45
2019-01-06T21:43:53.516Z,20.80
2019-01-06T21:46:20.606Z,30.12
2019-01-06T21:48:47.291Z,32.70
2019-01-06T21:51:14.066Z,44.83
2019-01-06T21:53:41.118Z,39.58
2019-01-06T21:56:08.165Z,27.30
2019-01-06T21:58:35.311Z,37.13
2019-01-06T22:01:02.361Z,28.25
2019-01-06T22:03:29.558Z,29.50
2019-01-06T22:05:56.294Z,35.52
2019-01-06T22:08:23.049Z,54.40
2019-01-06T22:10:50.191Z,58.10
2019-01-06T22:13:17.336Z,71.75
2019-01-06T22:15:44.088Z,73.83
2019-01-06T22:18:11.248Z,53.35
2019-01-06T22:20:38.382Z,48.73
2019-01-06T22:23:05.529Z,58.50
2019-01-06T22:25:32.258Z,79.75
2019-01-06T22:27:59.335Z,102.38
2019-01-06T22:30:26.171Z,71.05
2019-01-06T22:32:52.887Z,72.47
2019-01-06T22:35:19.947Z,72.47
2019-01-06T22:37:46.701Z,60.78
2019-01-06T22:40:13.418Z,59.48
2019-01-06T22:42:40.584Z,40.73
2019-01-06T22:45:07.320Z,32.10
2019-01-06T22:47:34.057Z,28.40
2019-01-06T22:50:00.795Z,20.20
2019-01-06T22:52:27.527Z,23.75
2019-01-06T22:54:54.301Z,30.62
2019-01-06T22:57:21.062Z,51.77
2019-01-06T22:59:48.124Z,51.53
2019-01-06T23:02:15.174Z,51.70
2019-01-06T23:04:42.425Z,57.15
2019-01-06T23:07:09.454Z,32.15
2019-01-06T23:09:36.151Z,24.05
2019-01-06T23:12:02.892Z,26.62
2019-01-06T23:14:29.554Z,29.52
2019-01-06T23:16:56.221Z,29.32
2019-01-06T23:19:23.396Z,30.43
2019-01-06T23:21:50.418Z,30.88
2019-01-06T23:24:17.479Z,28.27
2019-01-06T23:26:44.633Z,34.45
2019-01-06T23:29:11.842Z,34.88
2019-01-06T23:31:38.934Z,31.23
2019-01-06T23:34:06.103Z,39.10
2019-01-06T23:36:33.112Z,39.05
2019-01-06T23:38:59.798Z,37.55
2019-01-06T23:41:26.923Z,35.45
2019-01-06T23:43:53.672Z,32.50
2019-01-06T23:46:20.709Z,34.05
2019-01-06T23:48:47.485Z,36.17
2019-01-06T23:51:14.163Z,33.18
2019-01-06T23:53:40.844Z,43.45
2019-01-06T23:56:07.972Z,32.20
2019-01-06T23:58:35.156Z,31.50
